Back to Top

Language: 

My Weather Underground Personal Weather Station Historical Data with Graphs...

Delerius Weather Station Historical Data
 
Daily Summary for February 23, 2018 Units:  Metric    English   Both
« Previous Day
Next Day »
Daily Weekly Monthly Yearly Custom
  Current: High: Low: Average:
Temperature: -2.9 °C -1.3 °C -4 °C -2.6 °C
Dew Point: -3.6 °C -2.3 °C -4.9 °C -3.6 °C
Humidity: 95 % 95 % 91 % 93 %
Wind Speed: 0 km/h 1.6 km/h 0 km/h 0.2 km/h
Wind Gust: 3.2 km/h 8 km/h - -
Wind:Calm - - SSE
Pressure: 1023.9 hPa 1024.6 hPa 1023.9 hPa -
Precipitation: 0 mm      
Historical Graphs
 
 
Tabular Data for February 23, 2018
Time Temperature Dew Point Pressure Wind Wind Speed Wind Gust Humidity Rainfall Rate (Hourly) solar Conditions
00:04 -1.4 °C -2.6 °C 1024.6 hPa SE 1.6 km/h 6.4 km/h 92 % 0 mm 0 W/m2
00:09 -1.4 °C -2.6 °C 1024.6 hPa Calm   1.6 km/h 92 % 0 mm 0 W/m2
00:14 -1.4 °C -2.6 °C 1024.6 hPa Calm     92 % 0 mm 0 W/m2
00:19 -1.5 °C -2.6 °C 1024.6 hPa Calm   1.6 km/h 92 % 0 mm 0 W/m2
00:24 -1.6 °C -2.7 °C 1024.6 hPa Calm     92 % 0 mm 0 W/m2
00:29 -1.7 °C -2.8 °C 1024.6 hPa Calm     92 % 0 mm 0 W/m2
00:34 -1.7 °C -2.8 °C 1024.6 hPa Calm   1.6 km/h 92 % 0 mm 0 W/m2
00:39 -1.8 °C -2.9 °C 1024.6 hPa Calm     92 % 0 mm 0 W/m2
00:44 -1.8 °C -2.9 °C 1024.6 hPa Calm     92 % 0 mm 0 W/m2
00:49 -1.8 °C -2.9 °C 1024.6 hPa Calm   1.6 km/h 92 % 0 mm 0 W/m2
00:54 -1.8 °C -2.9 °C 1024.6 hPa Calm     92 % 0 mm 0 W/m2
00:59 -1.7 °C -2.8 °C 1024.6 hPa Calm     92 % 0 mm 0 W/m2
01:04 -1.7 °C -2.7 °C 1024.6 hPa SE 1.6 km/h 8 km/h 93 % 0 mm 0 W/m2
01:09 -1.5 °C -2.5 °C 1024.6 hPa Calm   3.2 km/h 93 % 0 mm 0 W/m2
01:14 -1.5 °C -2.6 °C 1024.6 hPa Calm     92 % 0 mm 0 W/m2
01:19 -1.6 °C -2.7 °C 1024.6 hPa Calm     92 % 0 mm 0 W/m2
01:24 -1.7 °C -2.8 °C 1024.6 hPa Calm     92 % 0 mm 0 W/m2
01:29 -1.7 °C -2.8 °C 1024.6 hPa Calm     92 % 0 mm 0 W/m2
01:34 -1.7 °C -2.8 °C 1024.6 hPa Calm     92 % 0 mm 0 W/m2
01:39 -1.7 °C -2.8 °C 1024.3 hPa Calm     92 % 0 mm 0 W/m2
01:44 -1.7 °C -2.8 °C 1024.3 hPa Calm     92 % 0 mm 0 W/m2
01:49 -1.7 °C -2.7 °C 1024.3 hPa Calm     93 % 0 mm 0 W/m2
01:54 -1.6 °C -2.6 °C 1024.3 hPa Calm     93 % 0 mm 0 W/m2
01:59 -1.4 °C -2.4 °C 1024.3 hPa Calm     93 % 0 mm 0 W/m2
02:04 -1.3 °C -2.3 °C 1024.3 hPa Calm     93 % 0 mm 0 W/m2
02:09 -1.4 °C -2.6 °C 1024.3 hPa Calm     92 % 0 mm 0 W/m2
02:14 -1.4 °C -2.6 °C 1024.3 hPa Calm     92 % 0 mm 0 W/m2
02:19 -1.4 °C -2.6 °C 1024.3 hPa Calm     92 % 0 mm 0 W/m2
02:24 -1.6 °C -2.9 °C 1024.3 hPa Calm     91 % 0 mm 0 W/m2
02:29 -1.7 °C -3 °C 1024.3 hPa Calm     91 % 0 mm 0 W/m2
02:34 -1.8 °C -3.1 °C 1024.3 hPa Calm     91 % 0 mm 0 W/m2
02:39 -1.9 °C -3.2 °C 1024.3 hPa Calm     91 % 0 mm 0 W/m2
02:44 -2.1 °C -3.4 °C 1024.3 hPa Calm     91 % 0 mm 0 W/m2
02:49 -2.2 °C -3.4 °C 1024.3 hPa Calm     91 % 0 mm 0 W/m2
02:54 -2.3 °C -3.6 °C 1024.3 hPa Calm     91 % 0 mm 0 W/m2
02:59 -2.4 °C -3.7 °C 1024.3 hPa Calm     91 % 0 mm 0 W/m2
03:04 -2.5 °C -3.8 °C 1024.3 hPa Calm     91 % 0 mm 0 W/m2
03:09 -2.6 °C -3.9 °C 1024.3 hPa Calm     91 % 0 mm 0 W/m2
03:14 -2.7 °C -3.9 °C 1024.3 hPa Calm     91 % 0 mm 0 W/m2
03:19 -2.8 °C -4.1 °C 1024.3 hPa Calm     91 % 0 mm 0 W/m2
03:24 -2.9 °C -4 °C 1024.3 hPa Calm     92 % 0 mm 0 W/m2
03:29 -2.9 °C -4 °C 1024.3 hPa Calm     92 % 0 mm 0 W/m2
03:34 -3 °C -4.1 °C 1024.3 hPa Calm     92 % 0 mm 0 W/m2
03:39 -3.1 °C -4.2 °C 1024.3 hPa Calm     92 % 0 mm 0 W/m2
03:44 -3.2 °C -4.3 °C 1024.3 hPa Calm     92 % 0 mm 0 W/m2
03:49 -3.2 °C -4.3 °C 1024.3 hPa Calm     92 % 0 mm 0 W/m2
03:54 -3.2 °C -4.3 °C 1024.3 hPa Calm     92 % 0 mm 0 W/m2
03:59 -3.3 °C -4.4 °C 1024.3 hPa Calm     92 % 0 mm 0 W/m2
04:04 -3.3 °C -4.4 °C 1024.3 hPa Calm     92 % 0 mm 0 W/m2
04:09 -3.4 °C -4.5 °C 1023.9 hPa Calm     92 % 0 mm 0 W/m2
04:14 -3.4 °C -4.5 °C 1023.9 hPa Calm     92 % 0 mm 0 W/m2
04:19 -3.4 °C -4.4 °C 1023.9 hPa Calm     93 % 0 mm 0 W/m2
04:24 -3.4 °C -4.4 °C 1023.9 hPa Calm     93 % 0 mm 0 W/m2
04:29 -3.5 °C -4.4 °C 1023.9 hPa Calm     93 % 0 mm 0 W/m2
04:34 -3.6 °C -4.6 °C 1024.3 hPa Calm     93 % 0 mm 0 W/m2
04:39 -3.7 °C -4.8 °C 1024.3 hPa Calm     92 % 0 mm 0 W/m2
04:44 -3.8 °C -4.9 °C 1024.3 hPa Calm     92 % 0 mm 0 W/m2
04:49 -3.9 °C -4.9 °C 1023.9 hPa Calm     93 % 0 mm 0 W/m2
04:54 -3.9 °C -4.9 °C 1023.9 hPa Calm     93 % 0 mm 0 W/m2
04:59 -3.9 °C -4.9 °C 1023.9 hPa Calm     93 % 0 mm 0 W/m2
05:04 -4 °C -4.9 °C 1023.9 hPa Calm     93 % 0 mm 0 W/m2
05:09 -4 °C -4.9 °C 1023.9 hPa South 1.6 km/h 3.2 km/h 93 % 0 mm 0 W/m2
05:14 -4 °C -4.9 °C 1023.9 hPa Calm     93 % 0 mm 0 W/m2
05:19 -3.8 °C -4.6 °C 1023.9 hPa Calm     94 % 0 mm 0 W/m2
05:25 -3.7 °C -4.5 °C 1023.9 hPa Calm     94 % 0 mm 0 W/m2
05:30 -3.7 °C -4.5 °C 1023.9 hPa Calm     94 % 0 mm 0 W/m2
05:35 -3.7 °C -4.5 °C 1023.9 hPa Calm     94 % 0 mm 0 W/m2
05:40 -3.7 °C -4.7 °C 1023.9 hPa Calm     93 % 0 mm 0 W/m2
05:45 -3.6 °C -4.4 °C 1023.9 hPa Calm   1.6 km/h 94 % 0 mm 0 W/m2
05:50 -3.3 °C -4.1 °C 1023.9 hPa Calm   3.2 km/h 94 % 0 mm 0 W/m2
05:55 -3.2 °C -3.9 °C 1023.9 hPa Calm   1.6 km/h 95 % 0 mm 0 W/m2
06:00 -2.9 °C -3.7 °C 1023.9 hPa South 1.6 km/h 3.2 km/h 94 % 0 mm 0 W/m2
06:05 -2.8 °C -3.6 °C 1023.9 hPa Calm   1.6 km/h 94 % 0 mm 0 W/m2
06:10 -2.9 °C -3.7 °C 1023.9 hPa Calm   1.6 km/h 94 % 0 mm 0 W/m2
06:15 -3 °C -3.8 °C 1023.9 hPa Calm   1.6 km/h 94 % 0 mm 0 W/m2
06:20 -3.1 °C -3.9 °C 1023.9 hPa Calm   1.6 km/h 94 % 0 mm 0 W/m2
06:25 -3.2 °C -4.1 °C 1023.9 hPa Calm   1.6 km/h 94 % 0 mm 0 W/m2
06:30 -3.1 °C -3.9 °C 1023.9 hPa SE 1.6 km/h 3.2 km/h 94 % 0 mm 0 W/m2
06:35 -3 °C -3.8 °C 1023.9 hPa Calm   1.6 km/h 94 % 0 mm 0 W/m2
06:40 -2.9 °C -3.6 °C 1023.9 hPa Calm   3.2 km/h 95 % 0 mm 0 W/m2
Delerius-Weather
Compliments of Weather Underground - 1.25 mb

Data updates at regular intervals.